sensor_id;sensor_type;location;lat;lon;timestamp;pressure;altitude;pressure_sealevel;temperature;humidity
1736;BME280;865;53.672;10.250;2023-04-26T00:01:01;101019.13;;;2.59;100.00
1736;BME280;865;53.672;10.250;2023-04-26T00:03:30;101020.06;;;2.62;100.00
1736;BME280;865;53.672;10.250;2023-04-26T00:05:59;101020.84;;;2.58;100.00
1736;BME280;865;53.672;10.250;2023-04-26T00:08:30;101019.19;;;2.60;100.00
1736;BME280;865;53.672;10.250;2023-04-26T00:10:57;101017.50;;;2.62;100.00
1736;BME280;865;53.672;10.250;2023-04-26T00:13:23;101021.81;;;2.63;100.00
1736;BME280;865;53.672;10.250;2023-04-26T00:15:49;101022.66;;;2.64;100.00
1736;BME280;865;53.672;10.250;2023-04-26T00:18:16;101022.66;;;2.62;100.00
1736;BME280;865;53.672;10.250;2023-04-26T00:20:43;101017.56;;;2.65;100.00
1736;BME280;865;53.672;10.250;2023-04-26T00:23:09;101015.75;;;2.61;100.00
1736;BME280;865;53.672;10.250;2023-04-26T00:25:36;101019.19;;;2.60;100.00
1736;BME280;865;53.672;10.250;2023-04-26T00:28:03;101020.03;;;2.59;100.00
1736;BME280;865;53.672;10.250;2023-04-26T00:30:30;101022.72;;;2.65;100.00
1736;BME280;865;53.672;10.250;2023-04-26T00:32:56;101024.47;;;2.69;100.00
1736;BME280;865;53.672;10.250;2023-04-26T00:35:22;101027.06;;;2.69;100.00
1736;BME280;865;53.672;10.250;2023-04-26T00:37:49;101017.63;;;2.70;100.00
1736;BME280;865;53.672;10.250;2023-04-26T00:40:15;101027.16;;;2.74;100.00
1736;BME280;865;53.672;10.250;2023-04-26T00:42:42;101018.56;;;2.75;100.00
1736;BME280;865;53.672;10.250;2023-04-26T00:45:09;101014.28;;;2.76;100.00
1736;BME280;865;53.672;10.250;2023-04-26T00:47:35;101022.09;;;2.82;100.00
1736;BME280;865;53.672;10.250;2023-04-26T00:50:02;101013.50;;;2.80;100.00
1736;BME280;865;53.672;10.250;2023-04-26T00:52:30;101010.84;;;2.77;100.00
1736;BME280;865;53.672;10.250;2023-04-26T00:54:57;101008.28;;;2.77;100.00
1736;BME280;865;53.672;10.250;2023-04-26T00:57:23;101005.66;;;2.73;100.00
1736;BME280;865;53.672;10.250;2023-04-26T00:59:51;101009.88;;;2.70;100.00
1736;BME280;865;53.672;10.250;2023-04-26T01:02:17;101012.56;;;2.74;100.00
1736;BME280;865;53.672;10.250;2023-04-26T01:04:44;101007.56;;;2.84;100.00
1736;BME280;865;53.672;10.250;2023-04-26T01:07:11;101012.66;;;2.81;100.00
1736;BME280;865;53.672;10.250;2023-04-26T01:09:38;101016.81;;;2.72;100.00
1736;BME280;865;53.672;10.250;2023-04-26T01:12:06;101018.53;;;2.73;100.00
1736;BME280;865;53.672;10.250;2023-04-26T01:14:33;101023.66;;;2.72;100.00
1736;BME280;865;53.672;10.250;2023-04-26T01:17:02;101020.28;;;2.76;100.00
1736;BME280;865;53.672;10.250;2023-04-26T01:19:29;101022.81;;;2.71;100.00
1736;BME280;865;53.672;10.250;2023-04-26T01:21:55;101029.63;;;2.69;100.00
1736;BME280;865;53.672;10.250;2023-04-26T01:24:21;101021.94;;;2.71;100.00
1736;BME280;865;53.672;10.250;2023-04-26T01:26:48;101021.09;;;2.72;100.00
1736;BME280;865;53.672;10.250;2023-04-26T01:29:19;101028.91;;;2.78;100.00
1736;BME280;865;53.672;10.250;2023-04-26T01:31:46;101020.28;;;2.74;100.00
1736;BME280;865;53.672;10.250;2023-04-26T01:34:13;101029.69;;;2.72;100.00
1736;BME280;865;53.672;10.250;2023-04-26T01:36:40;101030.53;;;2.71;100.00
1736;BME280;865;53.672;10.250;2023-04-26T01:39:06;101033.09;;;2.71;100.00
1736;BME280;865;53.672;10.250;2023-04-26T01:41:34;101039.09;;;2.70;100.00
1736;BME280;865;53.672;10.250;2023-04-26T01:44:00;101026.09;;;2.64;100.00
1736;BME280;865;53.672;10.250;2023-04-26T01:46:27;101044.13;;;2.64;100.00
1736;BME280;865;53.672;10.250;2023-04-26T01:48:53;101048.25;;;2.55;100.00
1736;BME280;865;53.672;10.250;2023-04-26T01:51:20;101047.25;;;2.46;100.00
1736;BME280;865;53.672;10.250;2023-04-26T01:53:46;101045.53;;;2.45;100.00
1736;BME280;865;53.672;10.250;2023-04-26T01:56:13;101048.78;;;2.37;100.00
1736;BME280;865;53.672;10.250;2023-04-26T01:58:39;101048.06;;;2.44;100.00
1736;BME280;865;53.672;10.250;2023-04-26T02:01:08;101049.81;;;2.46;100.00
1736;BME280;865;53.672;10.250;2023-04-26T02:03:34;101049.91;;;2.51;100.00
1736;BME280;865;53.672;10.250;2023-04-26T02:06:02;101044.78;;;2.51;100.00
1736;BME280;865;53.672;10.250;2023-04-26T02:08:28;101044.72;;;2.48;100.00
1736;BME280;865;53.672;10.250;2023-04-26T02:10:55;101052.44;;;2.48;100.00
1736;BME280;865;53.672;10.250;2023-04-26T02:13:21;101050.56;;;2.39;100.00
1736;BME280;865;53.672;10.250;2023-04-26T02:15:48;101056.56;;;2.40;100.00
1736;BME280;865;53.672;10.250;2023-04-26T02:18:15;101058.28;;;2.41;100.00
1736;BME280;865;53.672;10.250;2023-04-26T02:20:43;101053.09;;;2.38;100.00
1736;BME280;865;53.672;10.250;2023-04-26T02:23:11;101059.16;;;2.40;100.00
1736;BME280;865;53.672;10.250;2023-04-26T02:25:38;101059.25;;;2.44;100.00
1736;BME280;865;53.672;10.250;2023-04-26T02:28:04;101073.78;;;2.42;100.00
1736;BME280;865;53.672;10.250;2023-04-26T02:30:32;101058.44;;;2.48;100.00
1736;BME280;865;53.672;10.250;2023-04-26T02:32:58;101059.31;;;2.49;100.00
1736;BME280;865;53.672;10.250;2023-04-26T02:35:24;101059.38;;;2.52;100.00
1736;BME280;865;53.672;10.250;2023-04-26T02:37:51;101060.91;;;2.42;100.00
1736;BME280;865;53.672;10.250;2023-04-26T02:40:18;101059.19;;;2.41;100.00
1736;BME280;865;53.672;10.250;2023-04-26T02:42:46;101063.44;;;2.39;100.00
1736;BME280;865;53.672;10.250;2023-04-26T02:45:12;101063.28;;;2.32;100.00
1736;BME280;865;53.672;10.250;2023-04-26T02:47:39;101067.59;;;2.33;100.00
1736;BME280;865;53.672;10.250;2023-04-26T02:50:07;101071.03;;;2.33;100.00
1736;BME280;865;53.672;10.250;2023-04-26T02:52:35;101071.97;;;2.37;100.00
1736;BME280;865;53.672;10.250;2023-04-26T02:55:02;101076.13;;;2.32;100.00
1736;BME280;865;53.672;10.250;2023-04-26T02:57:32;101068.41;;;2.32;100.00
1736;BME280;865;53.672;10.250;2023-04-26T02:59:58;101065.78;;;2.28;100.00
1736;BME280;865;53.672;10.250;2023-04-26T03:02:25;101068.41;;;2.32;100.00
1736;BME280;865;53.672;10.250;2023-04-26T03:04:52;101066.75;;;2.34;100.00
1736;BME280;865;53.672;10.250;2023-04-26T03:07:18;101064.22;;;2.35;100.00
1736;BME280;865;53.672;10.250;2023-04-26T03:09:45;101073.78;;;2.44;100.00
1736;BME280;865;53.672;10.250;2023-04-26T03:12:11;101062.69;;;2.45;100.00
1736;BME280;865;53.672;10.250;2023-04-26T03:14:37;101057.44;;;2.40;100.00
1736;BME280;865;53.672;10.250;2023-04-26T03:17:04;101069.44;;;2.40;100.00
1736;BME280;865;53.672;10.250;2023-04-26T03:19:30;101062.63;;;2.43;100.00
1736;BME280;865;53.672;10.250;2023-04-26T03:21:56;101070.34;;;2.42;100.00
1736;BME280;865;53.672;10.250;2023-04-26T03:24:23;101071.22;;;2.44;100.00
1736;BME280;865;53.672;10.250;2023-04-26T03:26:49;101076.47;;;2.47;100.00
1736;BME280;865;53.672;10.250;2023-04-26T03:29:16;101073.94;;;2.50;100.00
1736;BME280;865;53.672;10.250;2023-04-26T03:31:42;101080.66;;;2.42;100.00
1736;BME280;865;53.672;10.250;2023-04-26T03:34:08;101085.75;;;2.39;100.00
1736;BME280;865;53.672;10.250;2023-04-26T03:36:35;101082.25;;;2.37;100.00
1736;BME280;865;53.672;10.250;2023-04-26T03:39:01;101089.97;;;2.35;100.00
1736;BME280;865;53.672;10.250;2023-04-26T03:41:27;101086.53;;;2.36;100.00
1736;BME280;865;53.672;10.250;2023-04-26T03:43:54;101091.56;;;2.30;100.00
1736;BME280;865;53.672;10.250;2023-04-26T03:46:20;101086.44;;;2.32;100.00
1736;BME280;865;53.672;10.250;2023-04-26T03:48:46;101072.75;;;2.33;100.00
1736;BME280;865;53.672;10.250;2023-04-26T03:51:13;101075.31;;;2.33;100.00
1736;BME280;865;53.672;10.250;2023-04-26T03:53:39;101074.53;;;2.35;100.00
1736;BME280;865;53.672;10.250;2023-04-26T03:56:06;101077.09;;;2.37;100.00
1736;BME280;865;53.672;10.250;2023-04-26T03:58:32;101075.31;;;2.33;100.00
1736;BME280;865;53.672;10.250;2023-04-26T04:00:59;101077.09;;;2.35;100.00
1736;BME280;865;53.672;10.250;2023-04-26T04:03:26;101080.34;;;2.26;100.00
1736;BME280;865;53.672;10.250;2023-04-26T04:05:55;101083.75;;;2.25;100.00
1736;BME280;865;53.672;10.250;2023-04-26T04:08:21;101090.59;;;2.23;100.00
1736;BME280;865;53.672;10.250;2023-04-26T04:10:48;101095.81;;;2.28;100.00
1736;BME280;865;53.672;10.250;2023-04-26T04:13:14;101110.44;;;2.31;100.00
1736;BME280;865;53.672;10.250;2023-04-26T04:15:40;101115.53;;;2.27;100.00
1736;BME280;865;53.672;10.250;2023-04-26T04:18:07;101125.94;;;2.32;100.00
1736;BME280;865;53.672;10.250;2023-04-26T04:20:33;101128.31;;;2.23;100.00
1736;BME280;865;53.672;10.250;2023-04-26T04:22:59;101131.41;;;2.07;100.00
1736;BME280;865;53.672;10.250;2023-04-26T04:25:29;101109.31;;;2.16;100.00
1736;BME280;865;53.672;10.250;2023-04-26T04:27:55;101119.47;;;2.10;100.00
1736;BME280;865;53.672;10.250;2023-04-26T04:30:23;101115.34;;;2.18;100.00
1736;BME280;865;53.672;10.250;2023-04-26T04:32:51;101119.84;;;2.28;100.00
1736;BME280;865;53.672;10.250;2023-04-26T04:35:17;101117.31;;;2.32;100.00
1736;BME280;865;53.672;10.250;2023-04-26T04:37:44;101118.22;;;2.34;100.00
1736;BME280;865;53.672;10.250;2023-04-26T04:40:11;101119.09;;;2.33;100.00
1736;BME280;865;53.672;10.250;2023-04-26T04:42:38;101121.72;;;2.37;100.00
1736;BME280;865;53.672;10.250;2023-04-26T04:45:05;101115.78;;;2.40;100.00
1736;BME280;865;53.672;10.250;2023-04-26T04:47:31;101120.22;;;2.47;100.00
1736;BME280;865;53.672;10.250;2023-04-26T04:49:59;101122.09;;;2.56;100.00
1736;BME280;865;53.672;10.250;2023-04-26T04:52:25;101117.91;;;2.61;100.00
1736;BME280;865;53.672;10.250;2023-04-26T04:54:52;101122.34;;;2.69;100.00
1736;BME280;865;53.672;10.250;2023-04-26T04:57:18;101134.53;;;2.78;100.00
1736;BME280;865;53.672;10.250;2023-04-26T04:59:45;101138.88;;;2.81;100.00
1736;BME280;865;53.672;10.250;2023-04-26T05:02:11;101131.25;;;2.87;100.00
1736;BME280;865;53.672;10.250;2023-04-26T05:04:38;101121.69;;;2.80;100.00
1736;BME280;865;53.672;10.250;2023-04-26T05:07:05;101121.66;;;2.78;100.00
1736;BME280;865;53.672;10.250;2023-04-26T05:09:32;101115.00;;;2.89;100.00
1736;BME280;865;53.672;10.250;2023-04-26T05:11:58;101116.00;;;2.99;100.00
1736;BME280;865;53.672;10.250;2023-04-26T05:14:25;101114.34;;;3.03;100.00
1736;BME280;865;53.672;10.250;2023-04-26T05:16:51;101112.28;;;2.82;100.00
1736;BME280;865;53.672;10.250;2023-04-26T05:19:19;101120.91;;;2.84;100.00
1736;BME280;865;53.672;10.250;2023-04-26T05:21:46;101113.97;;;2.81;100.00
1736;BME280;865;53.672;10.250;2023-04-26T05:24:12;101121.00;;;2.91;100.00
1736;BME280;865;53.672;10.250;2023-04-26T05:26:39;101120.25;;;2.95;100.00
1736;BME280;865;53.672;10.250;2023-04-26T05:29:05;101120.16;;;2.91;100.00
1736;BME280;865;53.672;10.250;2023-04-26T05:31:32;101115.06;;;2.94;100.00
1736;BME280;865;53.672;10.250;2023-04-26T05:33:58;101121.16;;;2.99;100.00
1736;BME280;865;53.672;10.250;2023-04-26T05:36:25;101122.63;;;2.85;100.00
1736;BME280;865;53.672;10.250;2023-04-26T05:38:55;101117.41;;;2.82;100.00
1736;BME280;865;53.672;10.250;2023-04-26T05:41:21;101125.19;;;2.85;100.00
1736;BME280;865;53.672;10.250;2023-04-26T05:43:47;101127.03;;;2.90;100.00
1736;BME280;865;53.672;10.250;2023-04-26T05:46:14;101127.44;;;3.15;100.00
1736;BME280;865;53.672;10.250;2023-04-26T05:48:40;101129.50;;;3.36;100.00
1736;BME280;865;53.672;10.250;2023-04-26T05:51:07;101142.47;;;3.42;100.00
1736;BME280;865;53.672;10.250;2023-04-26T05:53:34;101138.53;;;3.64;100.00
1736;BME280;865;53.672;10.250;2023-04-26T05:56:01;101138.81;;;3.81;100.00
1736;BME280;865;53.672;10.250;2023-04-26T05:58:27;101135.41;;;3.86;100.00
1736;BME280;865;53.672;10.250;2023-04-26T06:00:53;101136.31;;;3.87;100.00
1736;BME280;865;53.672;10.250;2023-04-26T06:03:20;101123.44;;;3.90;100.00
1736;BME280;865;53.672;10.250;2023-04-26T06:05:47;101139.66;;;3.83;100.00
1736;BME280;865;53.672;10.250;2023-04-26T06:08:13;101131.63;;;3.61;100.00
1736;BME280;865;53.672;10.250;2023-04-26T06:10:40;101136.06;;;3.72;100.00
1736;BME280;865;53.672;10.250;2023-04-26T06:13:06;101142.66;;;3.51;100.00
1736;BME280;865;53.672;10.250;2023-04-26T06:15:33;101150.31;;;3.45;100.00
1736;BME280;865;53.672;10.250;2023-04-26T06:17:59;101148.50;;;3.41;100.00
1736;BME280;865;53.672;10.250;2023-04-26T06:20:27;101152.06;;;3.49;100.00
1736;BME280;865;53.672;10.250;2023-04-26T06:22:53;101149.63;;;3.58;100.00
1736;BME280;865;53.672;10.250;2023-04-26T06:25:20;101150.59;;;3.65;100.00
1736;BME280;865;53.672;10.250;2023-04-26T06:27:46;101141.03;;;3.59;100.00
1736;BME280;865;53.672;10.250;2023-04-26T06:30:13;101143.78;;;3.70;100.00
1736;BME280;865;53.672;10.250;2023-04-26T06:32:40;101138.59;;;3.67;100.00
1736;BME280;865;53.672;10.250;2023-04-26T06:35:07;101137.91;;;3.79;100.00
1736;BME280;865;53.672;10.250;2023-04-26T06:37:34;101137.34;;;4.00;100.00
1736;BME280;865;53.672;10.250;2023-04-26T06:40:00;101134.09;;;4.15;100.00
1736;BME280;865;53.672;10.250;2023-04-26T06:42:27;101133.41;;;4.31;100.00
1736;BME280;865;53.672;10.250;2023-04-26T06:44:53;101135.34;;;4.49;100.00
1736;BME280;865;53.672;10.250;2023-04-26T06:47:20;101124.22;;;4.53;100.00
1736;BME280;865;53.672;10.250;2023-04-26T06:49:46;101122.63;;;4.64;100.00
1736;BME280;865;53.672;10.250;2023-04-26T06:52:13;101119.94;;;4.56;100.00
1736;BME280;865;53.672;10.250;2023-04-26T06:54:39;101111.59;;;4.82;100.00
1736;BME280;865;53.672;10.250;2023-04-26T06:57:21;101109.94;;;4.89;100.00
1736;BME280;865;53.672;10.250;2023-04-26T06:59:48;101107.25;;;4.76;100.00
1736;BME280;865;53.672;10.250;2023-04-26T07:02:14;101105.59;;;4.88;100.00
1736;BME280;865;53.672;10.250;2023-04-26T07:04:41;101103.13;;;4.97;100.00
1736;BME280;865;53.672;10.250;2023-04-26T07:07:08;101104.28;;;5.30;100.00
1736;BME280;865;53.672;10.250;2023-04-26T07:09:37;101107.94;;;5.59;100.00
1736;BME280;865;53.672;10.250;2023-04-26T07:12:04;101096.81;;;5.74;100.00
1736;BME280;865;53.672;10.250;2023-04-26T07:14:30;101094.28;;;5.86;100.00
1736;BME280;865;53.672;10.250;2023-04-26T07:16:56;101095.13;;;5.87;100.00
1736;BME280;865;53.672;10.250;2023-04-26T07:19:23;101096.19;;;6.21;100.00
1736;BME280;865;53.672;10.250;2023-04-26T07:21:49;101085.78;;;6.04;100.00
1736;BME280;865;53.672;10.250;2023-04-26T07:24:16;101097.84;;;6.02;100.00
1736;BME280;865;53.672;10.250;2023-04-26T07:26:42;101093.56;;;6.07;100.00
1736;BME280;865;53.672;10.250;2023-04-26T07:29:09;101101.41;;;6.33;100.00
1736;BME280;865;53.672;10.250;2023-04-26T07:31:35;101100.53;;;6.22;100.00
1736;BME280;865;53.672;10.250;2023-04-26T07:34:01;101092.75;;;6.27;100.00
1736;BME280;865;53.672;10.250;2023-04-26T07:36:28;101095.34;;;6.28;100.00
1736;BME280;865;53.672;10.250;2023-04-26T07:38:54;101089.34;;;6.38;100.00
1736;BME280;865;53.672;10.250;2023-04-26T07:41:20;101094.63;;;6.78;100.00
1736;BME280;865;53.672;10.250;2023-04-26T07:43:47;101090.25;;;6.59;100.00
1736;BME280;865;53.672;10.250;2023-04-26T07:46:13;101092.00;;;6.69;100.00
1736;BME280;865;53.672;10.250;2023-04-26T07:48:40;101088.50;;;6.49;100.00
1736;BME280;865;53.672;10.250;2023-04-26T07:51:07;101088.50;;;6.39;100.00
1736;BME280;865;53.672;10.250;2023-04-26T07:53:34;101088.41;;;6.24;100.00
1736;BME280;865;53.672;10.250;2023-04-26T07:56:03;101089.34;;;6.45;100.00
1736;BME280;865;53.672;10.250;2023-04-26T07:58:31;101082.50;;;6.68;100.00
1736;BME280;865;53.672;10.250;2023-04-26T08:00:59;101086.84;;;6.78;100.00
1736;BME280;865;53.672;10.250;2023-04-26T08:03:26;101089.41;;;6.68;100.00
1736;BME280;865;53.672;10.250;2023-04-26T08:05:53;101093.72;;;6.52;100.00
1736;BME280;865;53.672;10.250;2023-04-26T08:08:21;101094.53;;;6.40;100.00
1736;BME280;865;53.672;10.250;2023-04-26T08:10:48;101091.97;;;6.60;100.00
1736;BME280;865;53.672;10.250;2023-04-26T08:13:14;101089.41;;;6.66;100.00
1736;BME280;865;53.672;10.250;2023-04-26T08:15:41;101092.03;;;6.75;100.00
1736;BME280;865;53.672;10.250;2023-04-26T08:18:08;101088.56;;;7.16;100.00
1736;BME280;865;53.672;10.250;2023-04-26T08:20:34;101094.66;;;7.20;100.00
1736;BME280;865;53.672;10.250;2023-04-26T08:23:01;101091.19;;;6.90;100.00
1736;BME280;865;53.672;10.250;2023-04-26T08:25:28;101111.84;;;6.62;100.00
1736;BME280;865;53.672;10.250;2023-04-26T08:27:55;101099.75;;;6.66;100.00
1736;BME280;865;53.672;10.250;2023-04-26T08:30:21;101113.63;;;6.67;100.00
1736;BME280;865;53.672;10.250;2023-04-26T08:32:48;101109.28;;;6.64;100.00
1736;BME280;865;53.672;10.250;2023-04-26T08:35:15;101119.53;;;6.33;100.00
1736;BME280;865;53.672;10.250;2023-04-26T08:37:41;101120.31;;;6.15;100.00
1736;BME280;865;53.672;10.250;2023-04-26T08:40:08;101120.44;;;6.37;100.00
1736;BME280;865;53.672;10.250;2023-04-26T08:42:41;101113.66;;;6.88;100.00
1736;BME280;865;53.672;10.250;2023-04-26T08:45:09;101111.94;;;6.99;100.00
1736;BME280;865;53.672;10.250;2023-04-26T08:47:43;101111.91;;;7.45;100.00
1736;BME280;865;53.672;10.250;2023-04-26T08:50:12;101121.41;;;7.69;100.00
1736;BME280;865;53.672;10.250;2023-04-26T08:52:41;101118.84;;;7.59;100.00
1736;BME280;865;53.672;10.250;2023-04-26T08:55:08;101111.06;;;7.48;100.00
1736;BME280;865;53.672;10.250;2023-04-26T08:57:36;101117.03;;;7.94;100.00
1736;BME280;865;53.672;10.250;2023-04-26T09:00:04;101112.75;;;7.80;100.00
1736;BME280;865;53.672;10.250;2023-04-26T09:02:32;101101.44;;;7.90;100.00
1736;BME280;865;53.672;10.250;2023-04-26T09:04:59;101098.78;;;8.11;100.00
1736;BME280;865;53.672;10.250;2023-04-26T09:07:31;101104.09;;;7.70;100.00
1736;BME280;865;53.672;10.250;2023-04-26T09:09:59;101113.63;;;7.63;100.00
1736;BME280;865;53.672;10.250;2023-04-26T09:12:26;101122.31;;;6.93;100.00
1736;BME280;865;53.672;10.250;2023-04-26T09:14:53;101122.25;;;6.61;100.00
1736;BME280;865;53.672;10.250;2023-04-26T09:17:27;101137.75;;;6.50;100.00
1736;BME280;865;53.672;10.250;2023-04-26T09:19:54;101146.09;;;5.92;100.00
1736;BME280;865;53.672;10.250;2023-04-26T09:22:31;101144.16;;;5.64;100.00
1736;BME280;865;53.672;10.250;2023-04-26T09:24:58;101154.41;;;5.48;100.00
1736;BME280;865;53.672;10.250;2023-04-26T09:27:39;101152.66;;;5.41;100.00
1736;BME280;865;53.672;10.250;2023-04-26T09:30:14;101162.16;;;5.50;100.00
1736;BME280;865;53.672;10.250;2023-04-26T09:32:46;101153.59;;;5.56;100.00
1736;BME280;865;53.672;10.250;2023-04-26T09:40:48;101150.59;;;6.24;100.00
1736;BME280;865;53.672;10.250;2023-04-26T09:43:16;101142.00;;;6.31;100.00
1736;BME280;865;53.672;10.250;2023-04-26T09:45:54;101136.03;;;6.52;100.00
1736;BME280;865;53.672;10.250;2023-04-26T09:48:25;101134.34;;;6.60;100.00
1736;BME280;865;53.672;10.250;2023-04-26T09:50:58;101135.22;;;6.76;100.00
1736;BME280;865;53.672;10.250;2023-04-26T09:53:29;101136.84;;;6.41;100.00
1736;BME280;865;53.672;10.250;2023-04-26T09:56:04;101120.56;;;6.91;100.00
1736;BME280;865;53.672;10.250;2023-04-26T09:58:33;101128.38;;;7.30;100.00
1736;BME280;865;53.672;10.250;2023-04-26T10:01:00;101130.09;;;7.25;100.00
1736;BME280;865;53.672;10.250;2023-04-26T10:03:28;101127.50;;;7.56;100.00
1736;BME280;865;53.672;10.250;2023-04-26T10:05:55;101128.31;;;7.72;100.00
1736;BME280;865;53.672;10.250;2023-04-26T10:08:22;101126.47;;;8.18;100.00
1736;BME280;865;53.672;10.250;2023-04-26T10:10:48;101128.16;;;8.42;100.00
1736;BME280;865;53.672;10.250;2023-04-26T10:13:15;101132.47;;;8.43;100.00
1736;BME280;865;53.672;10.250;2023-04-26T10:15:43;101132.59;;;7.96;100.00
1736;BME280;865;53.672;10.250;2023-04-26T10:18:10;101126.50;;;8.15;100.00
1736;BME280;865;53.672;10.250;2023-04-26T10:20:42;101121.25;;;8.28;100.00
1736;BME280;865;53.672;10.250;2023-04-26T10:23:16;101121.22;;;8.26;100.00
1736;BME280;865;53.672;10.250;2023-04-26T10:25:45;101129.13;;;8.02;100.00
1736;BME280;865;53.672;10.250;2023-04-26T10:28:12;101114.47;;;7.85;100.00
1736;BME280;865;53.672;10.250;2023-04-26T10:30:56;101109.97;;;8.33;100.00
1736;BME280;865;53.672;10.250;2023-04-26T10:33:26;101106.28;;;8.74;100.00
1736;BME280;865;53.672;10.250;2023-04-26T10:36:11;101099.28;;;8.82;100.00
1736;BME280;865;53.672;10.250;2023-04-26T10:41:38;101112.53;;;8.36;100.00
1736;BME280;865;53.672;10.250;2023-04-26T10:44:37;101118.63;;;8.40;100.00
1736;BME280;865;53.672;10.250;2023-04-26T10:47:10;101129.66;;;8.77;100.00
1736;BME280;865;53.672;10.250;2023-04-26T10:49:46;101134.34;;;8.03;100.00
1736;BME280;865;53.672;10.250;2023-04-26T10:52:15;101130.06;;;7.04;100.00
1736;BME280;865;53.672;10.250;2023-04-26T10:57:17;101143.91;;;6.84;100.00
1736;BME280;865;53.672;10.250;2023-04-26T11:03:03;101132.63;;;7.94;100.00
1736;BME280;865;53.672;10.250;2023-04-26T11:05:52;101127.22;;;8.53;100.00
1736;BME280;865;53.672;10.250;2023-04-26T11:11:04;101129.97;;;8.08;100.00
1736;BME280;865;53.672;10.250;2023-04-26T11:13:36;101135.97;;;8.27;100.00
1736;BME280;865;53.672;10.250;2023-04-26T11:16:04;101129.06;;;8.18;100.00
1736;BME280;865;53.672;10.250;2023-04-26T11:18:35;101128.22;;;8.16;100.00
1736;BME280;865;53.672;10.250;2023-04-26T11:21:02;101129.91;;;8.23;100.00
1736;BME280;865;53.672;10.250;2023-04-26T11:23:30;101127.28;;;8.42;100.00
1736;BME280;865;53.672;10.250;2023-04-26T11:26:04;101130.59;;;8.65;100.00
1736;BME280;865;53.672;10.250;2023-04-26T11:28:34;101114.19;;;8.60;100.00
1736;BME280;865;53.672;10.250;2023-04-26T11:31:05;101132.41;;;8.57;100.00
1736;BME280;865;53.672;10.250;2023-04-26T11:33:32;101124.38;;;8.94;100.00
1736;BME280;865;53.672;10.250;2023-04-26T11:36:02;101125.03;;;9.25;100.00
1736;BME280;865;53.672;10.250;2023-04-26T11:38:29;101126.94;;;8.99;100.00
1736;BME280;865;53.672;10.250;2023-04-26T11:41:00;101124.22;;;9.16;100.00
1736;BME280;865;53.672;10.250;2023-04-26T11:43:39;101113.16;;;8.84;100.00
1736;BME280;865;53.672;10.250;2023-04-26T11:46:07;101107.66;;;9.26;100.00
1736;BME280;865;53.672;10.250;2023-04-26T11:48:35;101115.91;;;9.69;100.00
1736;BME280;865;53.672;10.250;2023-04-26T11:51:03;101125.41;;;9.75;100.00
1736;BME280;865;53.672;10.250;2023-04-26T11:53:49;101124.66;;;9.67;100.00
1736;BME280;865;53.672;10.250;2023-04-26T11:56:18;101125.69;;;9.49;100.00
1736;BME280;865;53.672;10.250;2023-04-26T11:58:49;101121.31;;;9.52;100.00
1736;BME280;865;53.672;10.250;2023-04-26T12:01:21;101127.50;;;9.39;100.00
1736;BME280;865;53.672;10.250;2023-04-26T12:03:50;101124.16;;;9.22;100.00
1736;BME280;865;53.672;10.250;2023-04-26T12:06:17;101121.50;;;9.28;97.77
1736;BME280;865;53.672;10.250;2023-04-26T12:08:51;101122.91;;;9.66;100.00
1736;BME280;865;53.672;10.250;2023-04-26T12:11:18;101132.06;;;10.02;100.00
1736;BME280;865;53.672;10.250;2023-04-26T12:13:45;101124.03;;;10.23;100.00
1736;BME280;865;53.672;10.250;2023-04-26T12:16:13;101120.16;;;9.78;97.46
1736;BME280;865;53.672;10.250;2023-04-26T12:18:52;101127.31;;;9.57;100.00
1736;BME280;865;53.672;10.250;2023-04-26T12:21:19;101139.00;;;10.06;100.00
1736;BME280;865;53.672;10.250;2023-04-26T12:23:46;101132.22;;;9.91;100.00
1736;BME280;865;53.672;10.250;2023-04-26T12:26:13;101130.25;;;10.12;100.00
1736;BME280;865;53.672;10.250;2023-04-26T12:28:40;101137.31;;;10.00;98.63
1736;BME280;865;53.672;10.250;2023-04-26T12:31:07;101149.38;;;10.08;100.00
1736;BME280;865;53.672;10.250;2023-04-26T12:33:34;101137.91;;;10.27;99.15
1736;BME280;865;53.672;10.250;2023-04-26T12:36:11;101138.06;;;10.12;93.86
1736;BME280;865;53.672;10.250;2023-04-26T12:38:38;101128.56;;;10.04;87.35
1736;BME280;865;53.672;10.250;2023-04-26T12:41:04;101144.25;;;10.01;88.03
1736;BME280;865;53.672;10.250;2023-04-26T12:43:31;101130.25;;;10.12;95.66
1736;BME280;865;53.672;10.250;2023-04-26T12:45:57;101147.31;;;9.54;88.78
1736;BME280;865;53.672;10.250;2023-04-26T12:48:25;101144.03;;;9.30;93.89
1736;BME280;865;53.672;10.250;2023-04-26T12:50:51;101151.69;;;9.50;95.38
1736;BME280;865;53.672;10.250;2023-04-26T12:53:17;101151.97;;;9.20;98.61
1736;BME280;865;53.672;10.250;2023-04-26T12:55:44;101144.16;;;9.15;100.00
1736;BME280;865;53.672;10.250;2023-04-26T12:58:11;101141.47;;;9.29;100.00
1736;BME280;865;53.672;10.250;2023-04-26T13:00:37;101155.59;;;8.91;99.91
1736;BME280;865;53.672;10.250;2023-04-26T13:03:04;101157.88;;;9.39;100.00
1736;BME280;865;53.672;10.250;2023-04-26T13:05:31;101164.78;;;9.41;100.00
1736;BME280;865;53.672;10.250;2023-04-26T13:07:58;101155.91;;;9.65;100.00
1736;BME280;865;53.672;10.250;2023-04-26T13:10:27;101144.69;;;9.58;100.00
1736;BME280;865;53.672;10.250;2023-04-26T13:12:53;101163.38;;;10.00;100.00
1736;BME280;865;53.672;10.250;2023-04-26T13:15:21;101162.00;;;9.63;97.73
1736;BME280;865;53.672;10.250;2023-04-26T13:17:49;101157.31;;;9.98;92.09
1736;BME280;865;53.672;10.250;2023-04-26T13:20:15;101169.69;;;9.75;94.83
1736;BME280;865;53.672;10.250;2023-04-26T13:22:42;101162.56;;;9.97;84.75
1736;BME280;865;53.672;10.250;2023-04-26T13:25:09;101174.13;;;9.65;85.30
1736;BME280;865;53.672;10.250;2023-04-26T13:27:38;101177.47;;;9.81;88.66
1736;BME280;865;53.672;10.250;2023-04-26T13:30:05;101173.03;;;9.89;81.95
1736;BME280;865;53.672;10.250;2023-04-26T13:32:31;101172.03;;;10.06;87.70